createdAt,value
2022-12-15T00:00:48.860Z,98886.56
2022-12-15T00:03:34.365Z,98889.75
2022-12-15T00:06:19.619Z,98880.00
2022-12-15T00:09:07.464Z,98890.50
2022-12-15T00:11:54.716Z,98889.25
2022-12-15T00:22:25.764Z,98906.31
2022-12-15T00:25:16.880Z,98916.88
2022-12-15T00:28:02.252Z,98911.97
2022-12-15T00:39:19.646Z,98913.63
2022-12-15T00:41:46.209Z,98918.66
2022-12-15T00:44:17.288Z,98914.44
2022-12-15T00:46:55.932Z,98924.19
2022-12-15T00:50:04.746Z,98933.63
2022-12-15T00:52:49.964Z,98926.31
2022-12-15T00:55:35.196Z,98916.44
2022-12-15T00:58:20.777Z,98902.91
2022-12-15T01:07:15.093Z,98900.38
2022-12-15T01:10:00.562Z,98906.22
2022-12-15T01:12:45.579Z,98895.34
2022-12-15T01:15:31.075Z,98903.47
2022-12-15T01:18:17.099Z,98908.28
2022-12-15T01:23:18.891Z,98912.88
2022-12-15T01:25:45.780Z,98911.53
2022-12-15T01:31:14.267Z,98909.72
2022-12-15T01:37:41.633Z,98904.00
2022-12-15T01:42:43.781Z,98925.22
2022-12-15T01:45:47.329Z,98921.28
2022-12-15T01:48:18.962Z,98917.34
2022-12-15T01:50:52.350Z,98918.87
2022-12-15T01:55:54.524Z,98912.84
2022-12-15T01:58:22.493Z,98914.81
2022-12-15T02:00:49.099Z,98915.00
2022-12-15T02:03:16.360Z,98917.56
2022-12-15T02:05:43.081Z,98916.41
2022-12-15T02:08:10.959Z,98909.72
2022-12-15T02:14:32.492Z,98922.06
2022-12-15T02:17:34.166Z,98917.75
2022-12-15T02:20:26.616Z,98914.91
2022-12-15T02:23:54.419Z,98921.94
2022-12-15T02:26:51.196Z,98933.37
2022-12-15T02:29:26.699Z,98930.66
2022-12-15T02:32:03.996Z,98932.06
2022-12-15T02:34:45.774Z,98930.75
2022-12-15T02:37:40.237Z,98924.00
2022-12-15T02:40:09.808Z,98914.31
2022-12-15T02:42:42.941Z,98926.78
2022-12-15T02:45:11.650Z,98917.13
2022-12-15T02:48:45.760Z,98910.03
2022-12-15T02:51:22.656Z,98927.41
2022-12-15T02:54:33.034Z,98932.81
2022-12-15T04:46:56.296Z,99023.03
2022-12-15T04:52:50.653Z,99041.56
2022-12-15T04:55:35.691Z,99049.53
2022-12-15T04:58:27.879Z,99053.97
2022-12-15T05:01:16.509Z,99066.19
2022-12-15T05:04:02.193Z,99051.03
2022-12-15T05:06:47.435Z,99060.69
2022-12-15T05:12:08.272Z,99065.38
2022-12-15T05:15:11.967Z,99061.28
2022-12-15T05:29:58.413Z,99086.28
2022-12-15T05:32:25.041Z,99070.31
2022-12-15T05:34:51.621Z,99086.59
2022-12-15T05:37:18.168Z,99100.78
2022-12-15T05:39:44.740Z,99100.72
2022-12-15T05:56:42.205Z,99109.56
2022-12-15T05:59:29.629Z,99115.06
2022-12-15T06:01:56.216Z,99125.03
2022-12-15T06:04:22.989Z,99142.06
2022-12-15T06:06:49.580Z,99152.44
2022-12-15T06:09:16.104Z,99151.28
2022-12-15T06:11:43.659Z,99161.00
2022-12-15T06:14:10.400Z,99169.41
2022-12-15T06:16:42.543Z,99168.44
2022-12-15T06:19:16.341Z,99175.44
2022-12-15T06:21:45.152Z,99183.50
2022-12-15T06:24:11.729Z,99185.78
2022-12-15T06:26:40.207Z,99183.16
2022-12-15T06:29:09.208Z,99186.16
2022-12-15T06:31:37.379Z,99178.22
2022-12-15T06:46:04.540Z,99176.69
2022-12-15T06:48:31.980Z,99189.09
2022-12-15T06:51:05.107Z,99197.53
2022-12-15T06:53:32.306Z,99202.28
2022-12-15T06:56:02.065Z,99208.81
2022-12-15T06:58:28.836Z,99207.13
2022-12-15T07:00:55.961Z,99215.34
2022-12-15T07:03:23.202Z,99214.53
2022-12-15T07:06:01.197Z,99228.88
2022-12-15T07:08:32.172Z,99236.47
2022-12-15T07:11:06.343Z,99240.84
2022-12-15T07:13:33.832Z,99262.09
2022-12-15T07:16:02.811Z,99264.94
2022-12-15T07:18:29.825Z,99261.37
2022-12-15T07:21:01.639Z,99267.00
2022-12-15T07:23:52.773Z,99258.75
2022-12-15T07:26:15.875Z,99255.06
2022-12-15T07:28:42.416Z,99271.53
2022-12-15T07:31:11.914Z,99264.47
2022-12-15T07:33:39.093Z,99268.03
2022-12-15T07:36:06.123Z,99265.88
2022-12-15T07:38:32.681Z,99255.97
2022-12-15T07:41:06.908Z,99277.72
2022-12-15T07:43:34.347Z,99293.41
2022-12-15T07:46:01.688Z,99289.41
2022-12-15T07:48:29.240Z,99281.94
2022-12-15T07:51:07.359Z,99291.66
2022-12-15T07:53:36.545Z,99289.47
2022-12-15T07:56:08.006Z,99288.34
2022-12-15T07:58:35.612Z,99289.72
2022-12-15T08:01:07.924Z,99294.28
2022-12-15T08:03:35.903Z,99298.22
2022-12-15T08:06:12.160Z,99297.69
2022-12-15T08:08:40.860Z,99293.44
2022-12-15T08:11:13.540Z,99306.03
2022-12-15T08:16:28.055Z,99301.47
2022-12-15T08:18:57.099Z,99313.19
2022-12-15T08:21:23.682Z,99313.22
2022-12-15T08:23:50.740Z,99326.94
2022-12-15T08:26:18.840Z,99331.41
2022-12-15T08:28:46.076Z,99328.00
2022-12-15T08:31:17.585Z,99329.50
2022-12-15T08:33:45.551Z,99325.69
2022-12-15T08:36:14.204Z,99336.44
2022-12-15T08:38:42.820Z,99329.91
2022-12-15T08:41:11.857Z,99330.28
2022-12-15T08:43:44.007Z,99342.25
2022-12-15T08:46:14.801Z,99343.41
2022-12-15T08:48:41.411Z,99333.34
2022-12-15T08:51:08.218Z,99341.50
2022-12-15T08:53:34.807Z,99359.53
2022-12-15T08:56:13.182Z,99356.53
2022-12-15T08:58:40.024Z,99360.41
2022-12-15T09:01:17.474Z,99365.09
2022-12-15T09:03:50.146Z,99363.28
2022-12-15T09:06:19.629Z,99356.88
2022-12-15T09:08:48.467Z,99355.41
2022-12-15T09:11:17.639Z,99347.41
2022-12-15T09:13:44.843Z,99346.69
2022-12-15T09:16:18.231Z,99353.81
2022-12-15T09:18:56.789Z,99351.94
2022-12-15T09:21:26.352Z,99353.09
2022-12-15T09:23:55.377Z,99363.38
2022-12-15T09:26:23.786Z,99351.47
2022-12-15T09:28:51.274Z,99340.09
2022-12-15T09:31:37.973Z,99336.81
2022-12-15T09:34:04.543Z,99329.78
2022-12-15T09:36:35.325Z,99327.66
2022-12-15T09:39:02.740Z,99339.41
2022-12-15T09:41:34.537Z,99351.38
2022-12-15T09:44:15.849Z,99351.81
2022-12-15T09:47:07.574Z,99357.22
2022-12-15T09:49:45.995Z,99357.66
2022-12-15T09:52:23.736Z,99356.56
2022-12-15T09:54:50.425Z,99358.69
2022-12-15T09:57:40.414Z,99366.38
2022-12-15T10:00:21.313Z,99374.22
2022-12-15T10:02:49.930Z,99375.56
2022-12-15T10:05:50.155Z,99378.91
2022-12-15T10:08:16.778Z,99382.66
2022-12-15T10:11:02.110Z,99377.44
2022-12-15T10:13:53.472Z,99368.22
2022-12-15T10:16:33.672Z,99365.41
2022-12-15T10:19:07.873Z,99358.59
2022-12-15T10:21:36.445Z,99368.37
2022-12-15T10:25:08.643Z,99369.69
2022-12-15T10:27:51.408Z,99369.53
2022-12-15T10:30:18.222Z,99358.03
2022-12-15T10:32:51.312Z,99360.63
2022-12-15T10:35:25.125Z,99353.28
2022-12-15T10:37:51.690Z,99362.38
2022-12-15T10:40:19.891Z,99357.56
2022-12-15T10:42:49.830Z,99353.69
2022-12-15T10:45:39.099Z,99347.06
2022-12-15T10:48:06.996Z,99347.28
2022-12-15T10:50:35.306Z,99347.25
2022-12-15T10:53:08.413Z,99334.62
2022-12-15T10:55:39.845Z,99335.47
2022-12-15T10:58:21.471Z,99343.03
2022-12-15T11:01:04.601Z,99349.25
2022-12-15T11:03:38.283Z,99349.62
2022-12-15T11:06:15.480Z,99354.78
2022-12-15T11:08:43.316Z,99356.69
2022-12-15T11:34:11.720Z,99353.09
2022-12-15T11:36:50.240Z,99349.06
2022-12-15T11:39:35.832Z,99347.09
2022-12-15T11:42:22.836Z,99358.97
2022-12-15T11:44:52.346Z,99358.44
2022-12-15T11:48:01.792Z,99363.63
2022-12-15T11:50:28.274Z,99372.25
2022-12-15T11:53:08.084Z,99382.63
2022-12-15T11:55:57.291Z,99383.25
2022-12-15T12:02:24.911Z,99370.50
2022-12-15T12:05:20.266Z,99377.59
2022-12-15T12:07:50.404Z,99370.38
2022-12-15T12:10:53.686Z,99373.38
2022-12-15T12:13:50.311Z,99376.13
2022-12-15T12:16:37.076Z,99380.06
2022-12-15T12:19:10.087Z,99355.75
2022-12-15T12:21:42.335Z,99365.25
2022-12-15T12:24:27.755Z,99364.34
2022-12-15T12:27:00.121Z,99359.34
2022-12-15T12:29:45.594Z,99351.59
2022-12-15T12:32:36.928Z,99347.38
2022-12-15T12:35:31.601Z,99345.16
2022-12-15T12:38:03.932Z,99355.47
2022-12-15T12:40:54.568Z,99350.41
2022-12-15T12:43:35.057Z,99350.66
2022-12-15T12:46:11.011Z,99340.56
2022-12-15T12:48:43.655Z,99348.62
2022-12-15T12:51:18.790Z,99347.38
2022-12-15T12:53:45.582Z,99350.91
2022-12-15T12:56:37.164Z,99357.50
2022-12-15T12:59:26.371Z,99370.31
2022-12-15T15:38:58.377Z,99387.41
2022-12-15T17:40:51.628Z,99410.94
2022-12-15T17:43:21.045Z,99413.53
2022-12-15T17:46:04.699Z,99411.59
2022-12-15T17:48:31.764Z,99418.28
2022-12-15T18:16:19.923Z,99403.94
2022-12-15T18:18:47.799Z,99385.88
2022-12-15T18:21:18.350Z,99398.81
2022-12-15T18:23:46.230Z,99387.41
2022-12-15T18:26:14.341Z,99388.03
2022-12-15T18:28:41.362Z,99398.41
2022-12-15T18:31:19.574Z,99405.34
2022-12-15T18:33:48.823Z,99403.91
2022-12-15T18:36:26.888Z,99392.59
2022-12-15T18:54:57.883Z,99384.34
2022-12-15T18:57:41.382Z,99376.00
2022-12-15T19:00:16.969Z,99380.78
2022-12-15T19:02:49.791Z,99369.13
2022-12-15T19:05:28.546Z,99366.19
2022-12-15T19:08:13.876Z,99368.63
2022-12-15T19:11:01.414Z,99360.75
2022-12-15T19:13:33.866Z,99368.91
2022-12-15T19:16:03.452Z,99378.19
2022-12-15T19:18:49.109Z,99376.81
2022-12-15T19:21:40.945Z,99383.78
2022-12-15T19:32:08.411Z,99379.59
2022-12-15T19:34:35.260Z,99374.97
2022-12-15T19:42:46.570Z,99379.16
2022-12-15T19:45:28.115Z,99374.44
2022-12-15T19:47:58.373Z,99381.44
2022-12-15T19:50:30.162Z,99370.25
2022-12-15T19:53:02.159Z,99368.37
2022-12-15T19:55:34.833Z,99357.31
2022-12-15T20:48:50.168Z,99292.69
2022-12-15T20:51:44.981Z,99290.78
2022-12-15T20:54:18.806Z,99283.09
2022-12-15T21:16:00.024Z,99281.31
2022-12-15T21:19:10.832Z,99276.22
2022-12-15T21:21:25.897Z,99272.47
2022-12-15T21:23:52.643Z,99270.75
2022-12-15T21:26:25.696Z,99268.25
2022-12-15T21:28:59.420Z,99273.88
2022-12-15T21:31:26.156Z,99262.03
2022-12-15T21:33:55.198Z,99259.25
2022-12-15T21:36:22.430Z,99252.63
2022-12-15T21:38:51.716Z,99249.88
2022-12-15T21:41:22.102Z,99236.19
2022-12-15T21:43:49.473Z,99240.25
2022-12-15T21:46:28.693Z,99232.81
2022-12-15T21:49:14.777Z,99239.25
2022-12-15T21:51:45.076Z,99237.59
2022-12-15T21:54:19.327Z,99232.16
2022-12-15T21:56:48.081Z,99227.19
2022-12-15T21:59:17.255Z,99213.56
2022-12-15T22:01:43.955Z,99219.34
2022-12-15T22:04:16.371Z,99214.69
2022-12-15T22:14:49.542Z,99219.03
2022-12-15T22:17:18.398Z,99212.97
2022-12-15T22:19:45.607Z,99214.25
2022-12-15T22:25:47.634Z,99206.47
2022-12-15T22:28:21.609Z,99195.94
2022-12-15T22:30:51.257Z,99196.34
2022-12-15T22:33:23.868Z,99190.44
2022-12-15T22:35:52.247Z,99199.22
2022-12-15T22:38:22.940Z,99190.06
2022-12-15T22:40:52.174Z,99191.28
2022-12-15T22:43:24.043Z,99178.87
2022-12-15T22:45:52.976Z,99177.03
2022-12-15T22:48:22.150Z,99187.03
2022-12-15T22:50:48.725Z,99180.34
2022-12-15T22:53:17.665Z,99168.47
2022-12-15T22:55:49.658Z,99172.78
2022-12-15T22:58:25.774Z,99174.59
2022-12-15T23:00:56.395Z,99185.16
2022-12-15T23:03:23.406Z,99172.47
2022-12-15T23:05:50.042Z,99173.97
2022-12-15T23:08:16.624Z,99169.87
2022-12-15T23:11:01.625Z,99165.56
2022-12-15T23:13:28.172Z,99154.66
2022-12-15T23:16:13.333Z,99144.56
2022-12-15T23:18:39.922Z,99148.16
2022-12-15T23:21:08.080Z,99139.63
2022-12-15T23:23:35.603Z,99144.75
2022-12-15T23:26:03.629Z,99141.38
2022-12-15T23:28:30.604Z,99139.84
2022-12-15T23:30:57.376Z,99140.37
2022-12-15T23:33:25.071Z,99125.97
2022-12-15T23:35:59.630Z,99128.72
2022-12-15T23:38:27.271Z,99128.84
2022-12-15T23:40:55.839Z,99121.72
2022-12-15T23:43:24.298Z,99115.47
2022-12-15T23:45:58.353Z,99124.81
2022-12-15T23:48:25.348Z,99114.19
2022-12-15T23:50:51.917Z,99108.34
2022-12-15T23:53:18.504Z,99100.16
